sensor_id;sensor_type;location;lat;lon;timestamp;P1;durP1;ratioP1;P2;durP2;ratioP2
43891;SDS011;29555;45.350;5.578;2023-06-26T00:01:49;7.30;;;4.80;;
43891;SDS011;29555;45.350;5.578;2023-06-26T00:04:14;6.80;;;6.18;;
43891;SDS011;29555;45.350;5.578;2023-06-26T00:06:40;7.70;;;5.38;;
43891;SDS011;29555;45.350;5.578;2023-06-26T00:09:06;7.28;;;5.00;;
43891;SDS011;29555;45.350;5.578;2023-06-26T00:11:32;8.40;;;4.93;;
43891;SDS011;29555;45.350;5.578;2023-06-26T00:13:58;6.53;;;4.90;;
43891;SDS011;29555;45.350;5.578;2023-06-26T00:16:26;5.47;;;4.68;;
43891;SDS011;29555;45.350;5.578;2023-06-26T00:18:52;5.63;;;4.95;;
43891;SDS011;29555;45.350;5.578;2023-06-26T00:21:18;4.32;;;3.92;;
43891;SDS011;29555;45.350;5.578;2023-06-26T00:23:44;24.15;;;5.05;;
43891;SDS011;29555;45.350;5.578;2023-06-26T00:26:10;5.78;;;4.78;;
43891;SDS011;29555;45.350;5.578;2023-06-26T00:28:36;6.03;;;4.18;;
43891;SDS011;29555;45.350;5.578;2023-06-26T00:31:01;8.10;;;5.65;;
43891;SDS011;29555;45.350;5.578;2023-06-26T00:33:26;4.95;;;4.45;;
43891;SDS011;29555;45.350;5.578;2023-06-26T00:35:52;8.98;;;4.82;;
43891;SDS011;29555;45.350;5.578;2023-06-26T00:38:17;5.72;;;5.07;;
43891;SDS011;29555;45.350;5.578;2023-06-26T00:40:42;9.15;;;5.10;;
43891;SDS011;29555;45.350;5.578;2023-06-26T00:43:08;5.82;;;5.25;;
43891;SDS011;29555;45.350;5.578;2023-06-26T00:45:34;6.80;;;4.10;;
43891;SDS011;29555;45.350;5.578;2023-06-26T00:47:59;16.48;;;6.07;;
43891;SDS011;29555;45.350;5.578;2023-06-26T00:50:24;5.28;;;4.78;;
43891;SDS011;29555;45.350;5.578;2023-06-26T00:52:51;6.47;;;5.38;;
43891;SDS011;29555;45.350;5.578;2023-06-26T00:55:16;7.20;;;5.18;;
43891;SDS011;29555;45.350;5.578;2023-06-26T00:57:42;5.88;;;4.63;;
43891;SDS011;29555;45.350;5.578;2023-06-26T01:00:10;7.82;;;5.25;;
43891;SDS011;29555;45.350;5.578;2023-06-26T01:02:37;5.57;;;4.57;;
43891;SDS011;29555;45.350;5.578;2023-06-26T01:05:04;7.15;;;5.00;;
43891;SDS011;29555;45.350;5.578;2023-06-26T01:07:32;6.38;;;4.97;;
43891;SDS011;29555;45.350;5.578;2023-06-26T01:10:07;6.03;;;4.63;;
43891;SDS011;29555;45.350;5.578;2023-06-26T01:12:33;5.97;;;4.47;;
43891;SDS011;29555;45.350;5.578;2023-06-26T01:14:59;6.30;;;4.70;;
43891;SDS011;29555;45.350;5.578;2023-06-26T01:17:25;5.10;;;4.35;;
43891;SDS011;29555;45.350;5.578;2023-06-26T01:19:56;7.03;;;3.97;;
43891;SDS011;29555;45.350;5.578;2023-06-26T01:22:25;5.55;;;4.65;;
43891;SDS011;29555;45.350;5.578;2023-06-26T01:25:02;4.72;;;4.32;;
43891;SDS011;29555;45.350;5.578;2023-06-26T01:27:46;6.13;;;4.45;;
43891;SDS011;29555;45.350;5.578;2023-06-26T01:30:13;5.50;;;4.53;;
43891;SDS011;29555;45.350;5.578;2023-06-26T01:32:40;9.63;;;5.57;;
43891;SDS011;29555;45.350;5.578;2023-06-26T01:35:07;5.88;;;5.22;;
43891;SDS011;29555;45.350;5.578;2023-06-26T01:37:33;6.00;;;5.05;;
43891;SDS011;29555;45.350;5.578;2023-06-26T01:39:58;7.45;;;5.65;;
43891;SDS011;29555;45.350;5.578;2023-06-26T01:42:24;9.63;;;5.55;;
43891;SDS011;29555;45.350;5.578;2023-06-26T01:44:49;6.70;;;5.00;;
43891;SDS011;29555;45.350;5.578;2023-06-26T01:47:19;5.63;;;5.10;;
43891;SDS011;29555;45.350;5.578;2023-06-26T01:49:54;7.43;;;5.32;;
43891;SDS011;29555;45.350;5.578;2023-06-26T01:52:27;5.35;;;4.55;;
43891;SDS011;29555;45.350;5.578;2023-06-26T01:57:31;6.35;;;4.60;;
43891;SDS011;29555;45.350;5.578;2023-06-26T01:59:57;6.22;;;4.82;;
43891;SDS011;29555;45.350;5.578;2023-06-26T02:02:24;6.22;;;4.13;;
43891;SDS011;29555;45.350;5.578;2023-06-26T02:04:50;6.13;;;5.53;;
43891;SDS011;29555;45.350;5.578;2023-06-26T02:07:16;15.63;;;6.18;;
43891;SDS011;29555;45.350;5.578;2023-06-26T02:09:41;8.05;;;5.38;;
43891;SDS011;29555;45.350;5.578;2023-06-26T02:12:07;4.82;;;4.40;;
43891;SDS011;29555;45.350;5.578;2023-06-26T02:14:32;7.18;;;5.78;;
43891;SDS011;29555;45.350;5.578;2023-06-26T02:16:58;7.95;;;5.28;;
43891;SDS011;29555;45.350;5.578;2023-06-26T02:19:25;5.85;;;5.03;;
43891;SDS011;29555;45.350;5.578;2023-06-26T02:21:52;5.70;;;4.75;;
43891;SDS011;29555;45.350;5.578;2023-06-26T02:24:18;5.28;;;4.50;;
43891;SDS011;29555;45.350;5.578;2023-06-26T02:26:43;7.10;;;5.00;;
43891;SDS011;29555;45.350;5.578;2023-06-26T02:29:09;9.25;;;5.57;;
43891;SDS011;29555;45.350;5.578;2023-06-26T02:31:34;10.07;;;5.10;;
43891;SDS011;29555;45.350;5.578;2023-06-26T02:34:00;5.38;;;4.68;;
43891;SDS011;29555;45.350;5.578;2023-06-26T02:36:25;5.72;;;5.22;;
43891;SDS011;29555;45.350;5.578;2023-06-26T02:38:50;10.00;;;4.97;;
43891;SDS011;29555;45.350;5.578;2023-06-26T02:41:16;5.80;;;4.75;;
43891;SDS011;29555;45.350;5.578;2023-06-26T02:43:41;11.80;;;5.75;;
43891;SDS011;29555;45.350;5.578;2023-06-26T02:46:06;9.73;;;5.72;;
43891;SDS011;29555;45.350;5.578;2023-06-26T02:48:32;5.47;;;4.97;;
43891;SDS011;29555;45.350;5.578;2023-06-26T02:50:57;5.97;;;4.55;;
43891;SDS011;29555;45.350;5.578;2023-06-26T02:53:22;9.13;;;5.47;;
43891;SDS011;29555;45.350;5.578;2023-06-26T02:55:48;9.18;;;5.72;;
43891;SDS011;29555;45.350;5.578;2023-06-26T02:58:13;9.40;;;5.35;;
43891;SDS011;29555;45.350;5.578;2023-06-26T03:00:39;6.50;;;5.10;;
43891;SDS011;29555;45.350;5.578;2023-06-26T03:03:06;9.40;;;5.93;;
43891;SDS011;29555;45.350;5.578;2023-06-26T03:05:34;7.47;;;5.47;;
43891;SDS011;29555;45.350;5.578;2023-06-26T03:08:00;4.93;;;3.92;;
43891;SDS011;29555;45.350;5.578;2023-06-26T03:10:27;5.50;;;5.00;;
43891;SDS011;29555;45.350;5.578;2023-06-26T03:12:52;5.32;;;4.82;;
43891;SDS011;29555;45.350;5.578;2023-06-26T03:15:17;5.82;;;4.90;;
43891;SDS011;29555;45.350;5.578;2023-06-26T03:17:44;5.53;;;4.95;;
43891;SDS011;29555;45.350;5.578;2023-06-26T03:20:09;6.00;;;4.65;;
43891;SDS011;29555;45.350;5.578;2023-06-26T03:22:35;7.43;;;4.68;;
43891;SDS011;29555;45.350;5.578;2023-06-26T03:25:01;8.27;;;4.97;;
43891;SDS011;29555;45.350;5.578;2023-06-26T03:27:28;7.15;;;5.32;;
43891;SDS011;29555;45.350;5.578;2023-06-26T03:29:53;6.07;;;4.25;;
43891;SDS011;29555;45.350;5.578;2023-06-26T03:32:18;6.07;;;5.18;;
43891;SDS011;29555;45.350;5.578;2023-06-26T03:34:44;12.60;;;6.30;;
43891;SDS011;29555;45.350;5.578;2023-06-26T03:37:09;7.22;;;5.45;;
43891;SDS011;29555;45.350;5.578;2023-06-26T03:39:34;7.57;;;5.28;;
43891;SDS011;29555;45.350;5.578;2023-06-26T03:42:00;5.88;;;5.00;;
43891;SDS011;29555;45.350;5.578;2023-06-26T03:44:26;6.25;;;5.65;;
43891;SDS011;29555;45.350;5.578;2023-06-26T03:46:52;9.63;;;5.50;;
43891;SDS011;29555;45.350;5.578;2023-06-26T03:49:17;5.88;;;5.28;;
43891;SDS011;29555;45.350;5.578;2023-06-26T03:51:43;7.63;;;6.00;;
43891;SDS011;29555;45.350;5.578;2023-06-26T03:54:09;15.85;;;5.70;;
43891;SDS011;29555;45.350;5.578;2023-06-26T03:56:35;7.13;;;5.40;;
43891;SDS011;29555;45.350;5.578;2023-06-26T03:59:00;6.43;;;5.03;;
43891;SDS011;29555;45.350;5.578;2023-06-26T04:01:25;7.28;;;5.07;;
43891;SDS011;29555;45.350;5.578;2023-06-26T04:03:51;7.00;;;5.70;;
43891;SDS011;29555;45.350;5.578;2023-06-26T04:06:16;6.65;;;5.03;;
43891;SDS011;29555;45.350;5.578;2023-06-26T04:08:42;9.20;;;5.45;;
43891;SDS011;29555;45.350;5.578;2023-06-26T04:11:07;5.15;;;4.50;;
43891;SDS011;29555;45.350;5.578;2023-06-26T04:13:33;5.80;;;4.88;;
43891;SDS011;29555;45.350;5.578;2023-06-26T04:15:58;7.07;;;6.10;;
43891;SDS011;29555;45.350;5.578;2023-06-26T04:18:23;6.40;;;4.80;;
43891;SDS011;29555;45.350;5.578;2023-06-26T04:21:08;4.93;;;4.43;;
43891;SDS011;29555;45.350;5.578;2023-06-26T04:23:36;9.73;;;6.38;;
43891;SDS011;29555;45.350;5.578;2023-06-26T04:26:01;6.07;;;5.07;;
43891;SDS011;29555;45.350;5.578;2023-06-26T04:28:28;5.13;;;4.32;;
43891;SDS011;29555;45.350;5.578;2023-06-26T04:30:53;8.18;;;5.70;;
43891;SDS011;29555;45.350;5.578;2023-06-26T04:33:19;6.07;;;4.97;;
43891;SDS011;29555;45.350;5.578;2023-06-26T04:35:44;11.30;;;4.72;;
43891;SDS011;29555;45.350;5.578;2023-06-26T04:38:13;6.60;;;5.97;;
43891;SDS011;29555;45.350;5.578;2023-06-26T04:40:39;8.05;;;4.97;;
43891;SDS011;29555;45.350;5.578;2023-06-26T04:43:04;6.72;;;5.15;;
43891;SDS011;29555;45.350;5.578;2023-06-26T04:45:30;5.80;;;5.07;;
43891;SDS011;29555;45.350;5.578;2023-06-26T04:47:55;6.35;;;5.10;;
43891;SDS011;29555;45.350;5.578;2023-06-26T04:50:21;7.35;;;6.57;;
43891;SDS011;29555;45.350;5.578;2023-06-26T04:52:47;7.47;;;5.72;;
43891;SDS011;29555;45.350;5.578;2023-06-26T04:55:12;5.53;;;4.82;;
43891;SDS011;29555;45.350;5.578;2023-06-26T04:57:38;7.03;;;5.57;;
43891;SDS011;29555;45.350;5.578;2023-06-26T05:00:03;6.78;;;5.32;;
43891;SDS011;29555;45.350;5.578;2023-06-26T05:02:34;7.28;;;5.35;;
43891;SDS011;29555;45.350;5.578;2023-06-26T05:05:00;6.22;;;5.43;;
43891;SDS011;29555;45.350;5.578;2023-06-26T05:07:25;7.63;;;6.22;;
43891;SDS011;29555;45.350;5.578;2023-06-26T05:09:51;5.93;;;4.95;;
43891;SDS011;29555;45.350;5.578;2023-06-26T05:12:16;8.50;;;5.78;;
43891;SDS011;29555;45.350;5.578;2023-06-26T05:14:41;6.57;;;4.85;;
43891;SDS011;29555;45.350;5.578;2023-06-26T05:17:07;8.48;;;5.95;;
43891;SDS011;29555;45.350;5.578;2023-06-26T05:19:32;7.63;;;6.05;;
43891;SDS011;29555;45.350;5.578;2023-06-26T05:21:57;6.35;;;5.40;;
43891;SDS011;29555;45.350;5.578;2023-06-26T05:24:26;7.93;;;5.57;;
43891;SDS011;29555;45.350;5.578;2023-06-26T05:26:52;14.57;;;5.47;;
43891;SDS011;29555;45.350;5.578;2023-06-26T05:29:18;8.75;;;6.65;;
43891;SDS011;29555;45.350;5.578;2023-06-26T05:31:43;5.75;;;5.25;;
43891;SDS011;29555;45.350;5.578;2023-06-26T05:34:10;8.98;;;6.03;;
43891;SDS011;29555;45.350;5.578;2023-06-26T05:36:36;5.57;;;4.95;;
43891;SDS011;29555;45.350;5.578;2023-06-26T05:39:02;7.82;;;6.15;;
43891;SDS011;29555;45.350;5.578;2023-06-26T05:41:28;9.23;;;5.43;;
43891;SDS011;29555;45.350;5.578;2023-06-26T05:43:53;5.82;;;5.30;;
43891;SDS011;29555;45.350;5.578;2023-06-26T05:46:19;9.65;;;5.47;;
43891;SDS011;29555;45.350;5.578;2023-06-26T05:48:45;7.68;;;5.22;;
43891;SDS011;29555;45.350;5.578;2023-06-26T05:51:10;6.72;;;4.72;;
43891;SDS011;29555;45.350;5.578;2023-06-26T05:53:36;9.27;;;6.38;;
43891;SDS011;29555;45.350;5.578;2023-06-26T05:56:01;7.68;;;5.22;;
43891;SDS011;29555;45.350;5.578;2023-06-26T05:58:27;7.80;;;5.88;;
43891;SDS011;29555;45.350;5.578;2023-06-26T06:00:53;8.20;;;5.75;;
43891;SDS011;29555;45.350;5.578;2023-06-26T06:03:18;6.80;;;5.13;;
43891;SDS011;29555;45.350;5.578;2023-06-26T06:05:43;8.15;;;5.70;;
43891;SDS011;29555;45.350;5.578;2023-06-26T06:08:09;6.70;;;5.32;;
43891;SDS011;29555;45.350;5.578;2023-06-26T06:10:34;9.25;;;6.93;;
43891;SDS011;29555;45.350;5.578;2023-06-26T06:13:00;6.65;;;5.70;;
43891;SDS011;29555;45.350;5.578;2023-06-26T06:15:25;8.73;;;6.22;;
43891;SDS011;29555;45.350;5.578;2023-06-26T06:17:51;12.65;;;6.30;;
43891;SDS011;29555;45.350;5.578;2023-06-26T06:20:16;5.90;;;5.22;;
43891;SDS011;29555;45.350;5.578;2023-06-26T06:22:44;7.55;;;6.28;;
43891;SDS011;29555;45.350;5.578;2023-06-26T06:25:10;7.28;;;5.45;;
43891;SDS011;29555;45.350;5.578;2023-06-26T06:27:35;8.43;;;6.97;;
43891;SDS011;29555;45.350;5.578;2023-06-26T06:30:01;10.65;;;7.07;;
43891;SDS011;29555;45.350;5.578;2023-06-26T06:32:26;9.57;;;7.32;;
43891;SDS011;29555;45.350;5.578;2023-06-26T06:34:52;12.63;;;6.47;;
43891;SDS011;29555;45.350;5.578;2023-06-26T06:37:17;11.30;;;6.45;;
43891;SDS011;29555;45.350;5.578;2023-06-26T06:39:42;11.23;;;6.63;;
43891;SDS011;29555;45.350;5.578;2023-06-26T06:42:08;10.85;;;6.65;;
43891;SDS011;29555;45.350;5.578;2023-06-26T06:44:33;7.45;;;6.13;;
43891;SDS011;29555;45.350;5.578;2023-06-26T06:46:58;7.80;;;6.30;;
43891;SDS011;29555;45.350;5.578;2023-06-26T06:49:24;7.13;;;6.43;;
43891;SDS011;29555;45.350;5.578;2023-06-26T06:51:49;10.25;;;6.88;;
43891;SDS011;29555;45.350;5.578;2023-06-26T06:54:15;13.95;;;6.22;;
43891;SDS011;29555;45.350;5.578;2023-06-26T06:56:41;9.10;;;6.88;;
43891;SDS011;29555;45.350;5.578;2023-06-26T06:59:07;17.60;;;6.00;;
43891;SDS011;29555;45.350;5.578;2023-06-26T07:01:32;8.35;;;5.72;;
43891;SDS011;29555;45.350;5.578;2023-06-26T07:03:58;8.07;;;5.90;;
43891;SDS011;29555;45.350;5.578;2023-06-26T07:06:23;10.10;;;7.35;;
43891;SDS011;29555;45.350;5.578;2023-06-26T07:08:49;12.40;;;8.05;;
43891;SDS011;29555;45.350;5.578;2023-06-26T07:11:14;12.70;;;6.63;;
43891;SDS011;29555;45.350;5.578;2023-06-26T07:13:40;6.20;;;5.60;;
43891;SDS011;29555;45.350;5.578;2023-06-26T07:16:05;29.30;;;10.52;;
43891;SDS011;29555;45.350;5.578;2023-06-26T07:18:31;12.93;;;8.10;;
43891;SDS011;29555;45.350;5.578;2023-06-26T07:20:56;8.35;;;6.30;;
43891;SDS011;29555;45.350;5.578;2023-06-26T07:23:21;21.27;;;8.88;;
43891;SDS011;29555;45.350;5.578;2023-06-26T07:25:47;10.48;;;6.88;;
43891;SDS011;29555;45.350;5.578;2023-06-26T07:28:12;6.72;;;6.03;;
43891;SDS011;29555;45.350;5.578;2023-06-26T07:30:38;7.05;;;5.63;;
43891;SDS011;29555;45.350;5.578;2023-06-26T07:33:04;6.75;;;6.05;;
43891;SDS011;29555;45.350;5.578;2023-06-26T07:35:29;8.18;;;6.07;;
43891;SDS011;29555;45.350;5.578;2023-06-26T07:37:55;8.40;;;6.07;;
43891;SDS011;29555;45.350;5.578;2023-06-26T07:40:20;10.60;;;6.00;;
43891;SDS011;29555;45.350;5.578;2023-06-26T07:42:45;6.60;;;5.47;;
43891;SDS011;29555;45.350;5.578;2023-06-26T07:45:11;6.32;;;4.93;;
43891;SDS011;29555;45.350;5.578;2023-06-26T07:47:40;7.38;;;5.80;;
43891;SDS011;29555;45.350;5.578;2023-06-26T07:50:05;13.32;;;6.28;;
43891;SDS011;29555;45.350;5.578;2023-06-26T07:52:31;7.00;;;5.30;;
43891;SDS011;29555;45.350;5.578;2023-06-26T07:54:57;7.22;;;6.50;;
43891;SDS011;29555;45.350;5.578;2023-06-26T07:57:22;6.95;;;6.25;;
43891;SDS011;29555;45.350;5.578;2023-06-26T07:59:48;10.50;;;6.40;;
43891;SDS011;29555;45.350;5.578;2023-06-26T08:02:13;9.95;;;5.95;;
43891;SDS011;29555;45.350;5.578;2023-06-26T08:04:39;12.10;;;5.70;;
43891;SDS011;29555;45.350;5.578;2023-06-26T08:07:04;6.80;;;6.00;;
43891;SDS011;29555;45.350;5.578;2023-06-26T08:09:30;9.82;;;6.00;;
43891;SDS011;29555;45.350;5.578;2023-06-26T08:11:56;5.72;;;4.75;;
43891;SDS011;29555;45.350;5.578;2023-06-26T08:14:22;6.72;;;6.03;;
43891;SDS011;29555;45.350;5.578;2023-06-26T08:16:48;6.30;;;5.55;;
43891;SDS011;29555;45.350;5.578;2023-06-26T08:19:15;9.95;;;5.88;;
43891;SDS011;29555;45.350;5.578;2023-06-26T08:21:41;8.52;;;6.38;;
43891;SDS011;29555;45.350;5.578;2023-06-26T08:24:08;9.20;;;4.93;;
43891;SDS011;29555;45.350;5.578;2023-06-26T08:26:34;5.75;;;5.15;;
43891;SDS011;29555;45.350;5.578;2023-06-26T08:28:59;5.70;;;5.20;;
43891;SDS011;29555;45.350;5.578;2023-06-26T08:31:24;7.65;;;5.90;;
43891;SDS011;29555;45.350;5.578;2023-06-26T08:33:50;15.50;;;6.22;;
43891;SDS011;29555;45.350;5.578;2023-06-26T08:36:15;7.00;;;5.78;;
43891;SDS011;29555;45.350;5.578;2023-06-26T08:38:41;6.20;;;5.13;;
43891;SDS011;29555;45.350;5.578;2023-06-26T08:41:06;8.52;;;4.57;;
43891;SDS011;29555;45.350;5.578;2023-06-26T08:43:32;6.18;;;4.85;;
43891;SDS011;29555;45.350;5.578;2023-06-26T08:45:58;5.90;;;4.57;;
43891;SDS011;29555;45.350;5.578;2023-06-26T08:48:24;4.65;;;4.22;;
43891;SDS011;29555;45.350;5.578;2023-06-26T08:50:49;6.10;;;4.60;;
43891;SDS011;29555;45.350;5.578;2023-06-26T08:53:33;4.85;;;4.45;;
43891;SDS011;29555;45.350;5.578;2023-06-26T08:56:08;6.78;;;4.95;;
43891;SDS011;29555;45.350;5.578;2023-06-26T08:58:35;5.15;;;4.63;;
43891;SDS011;29555;45.350;5.578;2023-06-26T09:01:02;10.63;;;4.88;;
43891;SDS011;29555;45.350;5.578;2023-06-26T09:03:30;7.97;;;6.75;;
43891;SDS011;29555;45.350;5.578;2023-06-26T09:05:56;5.85;;;4.95;;
43891;SDS011;29555;45.350;5.578;2023-06-26T09:08:21;5.65;;;4.88;;
43891;SDS011;29555;45.350;5.578;2023-06-26T09:10:47;5.03;;;4.55;;
43891;SDS011;29555;45.350;5.578;2023-06-26T09:13:12;7.13;;;4.60;;
43891;SDS011;29555;45.350;5.578;2023-06-26T09:15:38;9.68;;;5.05;;
43891;SDS011;29555;45.350;5.578;2023-06-26T09:18:07;8.38;;;5.10;;
43891;SDS011;29555;45.350;5.578;2023-06-26T09:20:32;6.15;;;5.47;;
43891;SDS011;29555;45.350;5.578;2023-06-26T09:22:58;5.07;;;4.18;;
43891;SDS011;29555;45.350;5.578;2023-06-26T09:25:24;6.70;;;5.53;;
43891;SDS011;29555;45.350;5.578;2023-06-26T09:27:49;5.53;;;5.03;;
43891;SDS011;29555;45.350;5.578;2023-06-26T09:30:18;6.72;;;5.10;;
43891;SDS011;29555;45.350;5.578;2023-06-26T09:32:44;8.13;;;5.05;;
43891;SDS011;29555;45.350;5.578;2023-06-26T09:35:10;6.43;;;5.55;;
43891;SDS011;29555;45.350;5.578;2023-06-26T09:37:36;7.20;;;5.13;;
43891;SDS011;29555;45.350;5.578;2023-06-26T09:40:02;5.95;;;4.65;;
43891;SDS011;29555;45.350;5.578;2023-06-26T09:42:28;5.32;;;4.78;;
43891;SDS011;29555;45.350;5.578;2023-06-26T09:44:54;5.03;;;4.53;;
43891;SDS011;29555;45.350;5.578;2023-06-26T09:47:20;5.75;;;4.50;;
43891;SDS011;29555;45.350;5.578;2023-06-26T09:49:46;5.53;;;4.93;;
43891;SDS011;29555;45.350;5.578;2023-06-26T09:52:15;6.30;;;4.90;;
43891;SDS011;29555;45.350;5.578;2023-06-26T09:54:45;7.70;;;5.40;;
43891;SDS011;29555;45.350;5.578;2023-06-26T09:57:11;4.72;;;3.88;;
43891;SDS011;29555;45.350;5.578;2023-06-26T09:59:38;4.60;;;3.90;;
43891;SDS011;29555;45.350;5.578;2023-06-26T10:02:05;4.57;;;4.15;;
43891;SDS011;29555;45.350;5.578;2023-06-26T10:04:31;5.10;;;4.68;;
43891;SDS011;29555;45.350;5.578;2023-06-26T10:06:56;5.22;;;4.60;;
43891;SDS011;29555;45.350;5.578;2023-06-26T10:09:25;5.03;;;4.53;;
43891;SDS011;29555;45.350;5.578;2023-06-26T10:11:56;13.85;;;5.38;;
43891;SDS011;29555;45.350;5.578;2023-06-26T10:14:24;9.38;;;5.53;;
43891;SDS011;29555;45.350;5.578;2023-06-26T10:16:52;4.45;;;3.97;;
43891;SDS011;29555;45.350;5.578;2023-06-26T10:19:20;6.88;;;4.22;;
43891;SDS011;29555;45.350;5.578;2023-06-26T10:21:53;5.60;;;4.22;;
43891;SDS011;29555;45.350;5.578;2023-06-26T10:24:19;8.55;;;4.97;;
43891;SDS011;29555;45.350;5.578;2023-06-26T10:26:46;8.40;;;4.63;;
43891;SDS011;29555;45.350;5.578;2023-06-26T10:29:17;7.18;;;5.35;;
43891;SDS011;29555;45.350;5.578;2023-06-26T10:31:44;5.43;;;4.38;;
43891;SDS011;29555;45.350;5.578;2023-06-26T10:34:14;7.07;;;5.25;;
43891;SDS011;29555;45.350;5.578;2023-06-26T10:36:40;5.70;;;3.97;;
43891;SDS011;29555;45.350;5.578;2023-06-26T10:39:06;6.00;;;4.10;;
43891;SDS011;29555;45.350;5.578;2023-06-26T10:41:38;7.22;;;5.38;;
43891;SDS011;29555;45.350;5.578;2023-06-26T10:46:48;5.88;;;4.30;;
43891;SDS011;29555;45.350;5.578;2023-06-26T10:49:14;6.57;;;4.45;;
43891;SDS011;29555;45.350;5.578;2023-06-26T10:51:45;6.57;;;3.97;;
43891;SDS011;29555;45.350;5.578;2023-06-26T10:54:15;9.43;;;4.97;;
43891;SDS011;29555;45.350;5.578;2023-06-26T10:56:45;6.22;;;4.38;;
43891;SDS011;29555;45.350;5.578;2023-06-26T10:59:15;8.38;;;5.45;;
43891;SDS011;29555;45.350;5.578;2023-06-26T11:01:46;4.88;;;4.38;;
43891;SDS011;29555;45.350;5.578;2023-06-26T11:04:18;6.28;;;3.95;;
43891;SDS011;29555;45.350;5.578;2023-06-26T11:10:02;4.28;;;3.90;;
43891;SDS011;29555;45.350;5.578;2023-06-26T11:12:42;4.93;;;4.38;;
43891;SDS011;29555;45.350;5.578;2023-06-26T11:15:09;6.22;;;4.45;;
43891;SDS011;29555;45.350;5.578;2023-06-26T11:17:43;6.40;;;4.65;;
43891;SDS011;29555;45.350;5.578;2023-06-26T11:20:13;5.40;;;4.50;;
43891;SDS011;29555;45.350;5.578;2023-06-26T11:22:42;4.65;;;4.25;;
43891;SDS011;29555;45.350;5.578;2023-06-26T11:25:09;4.68;;;4.28;;
43891;SDS011;29555;45.350;5.578;2023-06-26T11:27:42;7.78;;;4.80;;
43891;SDS011;29555;45.350;5.578;2023-06-26T11:30:11;6.13;;;3.88;;
43891;SDS011;29555;45.350;5.578;2023-06-26T11:32:47;14.32;;;4.50;;
43891;SDS011;29555;45.350;5.578;2023-06-26T11:35:13;6.20;;;5.05;;
43891;SDS011;29555;45.350;5.578;2023-06-26T11:37:46;6.53;;;5.22;;
43891;SDS011;29555;45.350;5.578;2023-06-26T11:40:18;8.20;;;4.82;;
43891;SDS011;29555;45.350;5.578;2023-06-26T11:42:44;5.13;;;4.72;;
43891;SDS011;29555;45.350;5.578;2023-06-26T11:45:10;8.00;;;4.95;;
43891;SDS011;29555;45.350;5.578;2023-06-26T11:47:35;5.25;;;4.78;;
43891;SDS011;29555;45.350;5.578;2023-06-26T11:50:04;6.75;;;4.25;;
43891;SDS011;29555;45.350;5.578;2023-06-26T11:52:29;5.47;;;4.90;;
43891;SDS011;29555;45.350;5.578;2023-06-26T11:54:57;7.72;;;4.70;;
43891;SDS011;29555;45.350;5.578;2023-06-26T11:57:23;6.85;;;4.38;;
43891;SDS011;29555;45.350;5.578;2023-06-26T11:59:49;5.10;;;4.07;;
43891;SDS011;29555;45.350;5.578;2023-06-26T12:02:16;6.65;;;4.93;;
43891;SDS011;29555;45.350;5.578;2023-06-26T12:04:42;13.85;;;5.90;;
43891;SDS011;29555;45.350;5.578;2023-06-26T12:07:08;4.80;;;4.40;;
43891;SDS011;29555;45.350;5.578;2023-06-26T12:09:38;7.20;;;4.75;;
43891;SDS011;29555;45.350;5.578;2023-06-26T12:12:05;5.55;;;4.18;;
43891;SDS011;29555;45.350;5.578;2023-06-26T12:14:31;4.63;;;4.15;;
43891;SDS011;29555;45.350;5.578;2023-06-26T12:17:03;3.75;;;3.28;;
43891;SDS011;29555;45.350;5.578;2023-06-26T12:19:30;4.75;;;4.07;;
43891;SDS011;29555;45.350;5.578;2023-06-26T12:21:55;7.20;;;4.72;;
43891;SDS011;29555;45.350;5.578;2023-06-26T12:24:22;6.43;;;4.65;;
43891;SDS011;29555;45.350;5.578;2023-06-26T12:26:52;11.57;;;5.32;;
43891;SDS011;29555;45.350;5.578;2023-06-26T12:29:21;8.55;;;3.95;;
43891;SDS011;29555;45.350;5.578;2023-06-26T12:31:51;4.80;;;4.10;;
43891;SDS011;29555;45.350;5.578;2023-06-26T12:34:18;5.32;;;4.82;;
43891;SDS011;29555;45.350;5.578;2023-06-26T12:36:45;4.95;;;4.50;;
43891;SDS011;29555;45.350;5.578;2023-06-26T12:39:19;4.85;;;4.45;;
43891;SDS011;29555;45.350;5.578;2023-06-26T12:41:57;4.30;;;3.85;;
43891;SDS011;29555;45.350;5.578;2023-06-26T12:44:28;4.18;;;3.70;;
43891;SDS011;29555;45.350;5.578;2023-06-26T12:47:01;6.63;;;5.35;;
43891;SDS011;29555;45.350;5.578;2023-06-26T12:49:36;7.57;;;5.10;;
43891;SDS011;29555;45.350;5.578;2023-06-26T12:52:04;6.35;;;4.68;;
43891;SDS011;29555;45.350;5.578;2023-06-26T12:54:31;4.35;;;3.95;;
43891;SDS011;29555;45.350;5.578;2023-06-26T12:56:58;11.15;;;5.03;;
43891;SDS011;29555;45.350;5.578;2023-06-26T12:59:23;7.55;;;3.78;;
43891;SDS011;29555;45.350;5.578;2023-06-26T13:01:49;4.57;;;4.05;;
43891;SDS011;29555;45.350;5.578;2023-06-26T13:04:15;5.78;;;4.53;;
43891;SDS011;29555;45.350;5.578;2023-06-26T13:06:41;4.32;;;3.72;;
43891;SDS011;29555;45.350;5.578;2023-06-26T13:09:06;6.03;;;3.30;;
43891;SDS011;29555;45.350;5.578;2023-06-26T13:11:32;5.28;;;4.13;;
43891;SDS011;29555;45.350;5.578;2023-06-26T13:13:58;4.45;;;4.05;;
43891;SDS011;29555;45.350;5.578;2023-06-26T13:16:24;11.23;;;3.75;;
43891;SDS011;29555;45.350;5.578;2023-06-26T13:18:49;4.03;;;3.60;;
43891;SDS011;29555;45.350;5.578;2023-06-26T13:21:14;4.38;;;3.90;;
43891;SDS011;29555;45.350;5.578;2023-06-26T13:23:41;7.30;;;4.95;;
43891;SDS011;29555;45.350;5.578;2023-06-26T13:26:07;7.07;;;4.38;;
43891;SDS011;29555;45.350;5.578;2023-06-26T13:28:32;11.73;;;5.25;;
43891;SDS011;29555;45.350;5.578;2023-06-26T13:30:58;6.05;;;4.30;;
43891;SDS011;29555;45.350;5.578;2023-06-26T13:33:23;4.80;;;4.37;;
43891;SDS011;29555;45.350;5.578;2023-06-26T13:35:51;4.82;;;4.07;;
43891;SDS011;29555;45.350;5.578;2023-06-26T13:38:20;8.85;;;4.35;;
43891;SDS011;29555;45.350;5.578;2023-06-26T13:40:52;5.28;;;4.40;;
43891;SDS011;29555;45.350;5.578;2023-06-26T13:43:25;5.55;;;4.22;;
43891;SDS011;29555;45.350;5.578;2023-06-26T13:45:55;4.35;;;3.95;;
43891;SDS011;29555;45.350;5.578;2023-06-26T13:48:20;6.15;;;4.30;;
43891;SDS011;29555;45.350;5.578;2023-06-26T13:50:46;5.15;;;4.20;;
43891;SDS011;29555;45.350;5.578;2023-06-26T13:53:13;6.88;;;4.97;;
43891;SDS011;29555;45.350;5.578;2023-06-26T13:55:39;9.27;;;4.80;;
43891;SDS011;29555;45.350;5.578;2023-06-26T13:58:05;5.32;;;4.55;;
43891;SDS011;29555;45.350;5.578;2023-06-26T14:00:31;8.10;;;5.00;;
43891;SDS011;29555;45.350;5.578;2023-06-26T14:02:58;4.32;;;3.92;;
43891;SDS011;29555;45.350;5.578;2023-06-26T14:05:24;4.07;;;3.75;;
43891;SDS011;29555;45.350;5.578;2023-06-26T14:07:49;5.93;;;3.43;;
43891;SDS011;29555;45.350;5.578;2023-06-26T14:10:15;4.20;;;3.83;;
43891;SDS011;29555;45.350;5.578;2023-06-26T14:12:40;4.33;;;3.93;;
43891;SDS011;29555;45.350;5.578;2023-06-26T14:15:06;5.38;;;4.35;;
43891;SDS011;29555;45.350;5.578;2023-06-26T14:17:32;8.55;;;4.82;;
43891;SDS011;29555;45.350;5.578;2023-06-26T14:19:57;8.50;;;5.47;;
43891;SDS011;29555;45.350;5.578;2023-06-26T14:22:23;6.05;;;4.00;;
43891;SDS011;29555;45.350;5.578;2023-06-26T14:24:48;10.55;;;4.35;;
43891;SDS011;29555;45.350;5.578;2023-06-26T14:27:14;5.35;;;4.05;;
43891;SDS011;29555;45.350;5.578;2023-06-26T14:29:39;3.58;;;3.28;;
43891;SDS011;29555;45.350;5.578;2023-06-26T14:32:05;6.63;;;5.10;;
43891;SDS011;29555;45.350;5.578;2023-06-26T14:34:31;11.00;;;3.72;;
43891;SDS011;29555;45.350;5.578;2023-06-26T14:36:57;4.20;;;3.78;;
43891;SDS011;29555;45.350;5.578;2023-06-26T14:39:22;5.60;;;4.23;;
43891;SDS011;29555;45.350;5.578;2023-06-26T14:41:47;5.43;;;3.53;;
43891;SDS011;29555;45.350;5.578;2023-06-26T14:44:13;4.32;;;3.30;;
43891;SDS011;29555;45.350;5.578;2023-06-26T14:46:39;5.45;;;4.60;;
43891;SDS011;29555;45.350;5.578;2023-06-26T14:49:05;5.80;;;3.60;;
43891;SDS011;29555;45.350;5.578;2023-06-26T14:51:30;10.43;;;4.38;;